Beaumont, Mississippi
Current Conditions -  °F | °C
As of 4:53 PM on Monday 22 Dec 2014 (Local Time) from KHBG Reporting Station
Broken Clouds Broken Clouds  
Wind Chill: 67°   Ceiling: 1000
Heat Index: 67°   Visibility: 8mi
Dew Point: 65°   Wind: 7mph
Humidity: 93%   Direction: 140°SE
Pressure: 29.7"   Gusts: NA
Location:  31.17°N, 88.92°W
Report Text: KHBG 222253Z AUTO 14006KT 8SM BKN010 BKN015 19/18 A2970 RMK AO2 CIG 009V014 SLP056 T01940183
Loading
Personal Weather Stations






























Interactive Weather Map New forecast layout! Learn more

10-Day Weather Forecast

Advertisements
Track Severe Weather on mobile